Time;durP1;ratioP1;P1;durP2;ratioP2;P2;SDS_P1;SDS_P2;PMS_P1;PMS_P2;Temp;Humidity;BMP_temperature;BMP_pressure;BME280_temperature;BME280_humidity;BME280_pressure;Samples;Min_cycle;Max_cycle;Signal;HPM_P1;HPM_P2
2022/10/09 00:01:10;;;;;;;0.60;0.60;;;;;;;6.56;96.92;99477.13;5108731;28;20510;-84
2022/10/09 00:03:38;;;;;;;0.60;0.60;;;;;;;6.56;96.65;99482.50;5109868;28;20054;-85
2022/10/09 00:06:31;;;;;;;0.60;0.60;;;;;;;6.57;96.52;99473.44;5112027;28;20056;-85
2022/10/09 00:09:00;;;;;;;0.70;0.70;;;;;;;6.55;96.75;99483.53;5109651;28;20047;-87
2022/10/09 00:11:29;;;;;;;0.60;0.60;;;;;;;6.47;96.56;99480.03;5109707;28;20182;-84
2022/10/09 00:13:57;;;;;;;0.60;0.60;;;;;;;6.47;96.84;99468.47;5088597;28;20142;-85
2022/10/09 00:16:24;;;;;;;0.68;0.68;;;;;;;6.48;96.86;99473.66;5113143;28;20052;-87
2022/10/09 00:18:52;;;;;;;0.70;0.70;;;;;;;6.45;97.05;99471.34;5111045;28;20586;-85
2022/10/09 00:21:21;;;;;;;0.60;0.60;;;;;;;6.50;97.24;99471.56;5112895;28;20505;-85
2022/10/09 00:23:49;;;;;;;0.60;0.60;;;;;;;6.50;97.16;99462.69;5115390;28;20537;-84
2022/10/09 00:26:16;;;;;;;0.60;0.60;;;;;;;6.50;97.14;99458.16;5113623;28;20040;-86
2022/10/09 00:28:44;;;;;;;0.60;0.60;;;;;;;6.44;97.15;99453.63;5114982;28;20055;-85
2022/10/09 00:31:12;;;;;;;0.70;0.70;;;;;;;6.41;97.25;99456.72;5114304;28;20051;-86
2022/10/09 00:33:39;;;;;;;0.60;0.60;;;;;;;6.40;97.30;99447.03;5113848;28;20048;-86
2022/10/09 00:36:10;;;;;;;0.60;0.60;;;;;;;6.35;97.65;99449.50;5114901;28;20047;-85
2022/10/09 00:38:38;;;;;;;0.60;0.60;;;;;;;6.34;97.72;99447.84;5114534;28;20050;-85
2022/10/09 00:41:06;;;;;;;0.70;0.70;;;;;;;6.36;97.83;99448.47;5113951;28;20074;-86
2022/10/09 00:43:45;;;;;;;0.63;0.63;;;;;;;6.35;97.90;99448.69;5114254;28;20090;-86
2022/10/09 00:46:25;;;;;;;0.60;0.60;;;;;;;6.29;98.42;99440.44;5113826;28;20123;-85
2022/10/09 00:49:04;;;;;;;0.60;0.60;;;;;;;6.28;98.37;99446.03;5114956;28;20631;-85
2022/10/09 00:51:33;;;;;;;0.60;0.60;;;;;;;6.23;98.42;99435.09;5114459;28;20597;-86
2022/10/09 00:54:02;;;;;;;0.60;0.60;;;;;;;6.24;98.68;99444.78;5114289;28;20502;-85
2022/10/09 00:56:30;;;;;;;0.60;0.60;;;;;;;6.20;98.97;99435.47;5114326;28;20074;-85
2022/10/09 00:58:57;;;;;;;0.60;0.60;;;;;;;6.15;98.89;99436.09;5112685;28;20047;-85
2022/10/09 01:01:24;;;;;;;0.60;0.60;;;;;;;6.05;99.16;99428.47;5112558;28;20101;-86
2022/10/09 01:03:51;;;;;;;0.70;0.70;;;;;;;6.05;99.44;99432.97;5114432;28;20048;-85
2022/10/09 01:06:31;;;;;;;0.60;0.60;;;;;;;6.06;99.64;99427.44;5096251;28;20142;-85
2022/10/09 01:09:07;;;;;;;0.60;0.60;;;;;;;5.99;99.61;99429.28;5112943;28;20455;-85
2022/10/09 01:11:43;;;;;;;0.60;0.60;;;;;;;6.01;99.97;99439.81;5113723;28;20432;-85
2022/10/09 01:14:16;;;;;;;0.60;0.60;;;;;;;5.99;100.00;99437.31;5113334;28;20052;-85
2022/10/09 01:16:59;;;;;;;0.60;0.60;;;;;;;5.96;100.00;99436.91;5112022;28;20069;-85
2022/10/09 01:20:03;;;;;;;0.60;0.60;;;;;;;5.99;100.00;99437.31;5114047;28;20138;-85
2022/10/09 01:23:14;;;;;;;0.60;0.60;;;;;;;5.94;100.00;99437.09;5115667;28;20422;-85
2022/10/09 01:25:49;;;;;;;0.60;0.60;;;;;;;5.88;100.00;99431.72;5114602;28;20075;-85
2022/10/09 01:28:18;;;;;;;0.60;0.60;;;;;;;5.87;100.00;99436.22;5112722;28;20083;-86
2022/10/09 01:30:46;;;;;;;0.70;0.70;;;;;;;5.86;100.00;99424.69;5105728;28;20413;-84
2022/10/09 01:33:16;;;;;;;0.60;0.60;;;;;;;5.86;100.00;99429.22;5096782;28;20530;-84
2022/10/09 01:35:43;;;;;;;0.70;0.70;;;;;;;5.84;100.00;99426.75;5097847;28;20082;-86
2022/10/09 01:38:11;;;;;;;0.60;0.60;;;;;;;5.78;100.00;99426.75;5099986;28;20052;-85
2022/10/09 01:40:38;;;;;;;0.70;0.70;;;;;;;5.72;100.00;99420.38;5100897;28;20043;-85
2022/10/09 01:43:05;;;;;;;0.70;0.70;;;;;;;5.74;100.00;99426.31;5098838;28;20054;-85
2022/10/09 01:45:37;;;;;;;0.60;0.60;;;;;;;5.72;100.00;99415.00;5102299;28;20044;-84
2022/10/09 01:48:05;;;;;;;0.60;0.60;;;;;;;5.77;100.00;99428.63;5093362;28;20188;-85
2022/10/09 01:50:39;;;;;;;0.60;0.60;;;;;;;5.79;100.00;99429.22;5093461;28;20101;-84
2022/10/09 01:53:09;;;;;;;0.60;0.60;;;;;;;5.75;100.00;99416.44;5075228;28;20567;-85
2022/10/09 01:55:43;;;;;;;0.68;0.68;;;;;;;5.74;100.00;99428.19;5093125;28;20575;-85
2022/10/09 01:58:18;;;;;;;0.70;0.70;;;;;;;5.70;100.00;99421.56;5092583;28;20146;-84
2022/10/09 02:00:51;;;;;;;0.70;0.70;;;;;;;5.73;100.00;99415.81;5091825;28;20094;-85
2022/10/09 02:03:19;;;;;;;0.60;0.60;;;;;;;5.68;100.00;99413.75;5091645;28;20052;-84
2022/10/09 02:05:48;;;;;;;0.60;0.60;;;;;;;5.67;100.00;99411.25;5092812;28;20438;-84
2022/10/09 02:08:17;;;;;;;0.60;0.60;;;;;;;5.64;100.00;99410.63;5091294;28;20048;-85
2022/10/09 02:10:46;;;;;;;0.70;0.70;;;;;;;5.63;100.00;99409.00;5092630;28;20506;-85
2022/10/09 02:13:13;;;;;;;0.70;0.70;;;;;;;5.58;100.00;99406.09;5091383;28;20055;-87
2022/10/09 02:15:47;;;;;;;0.60;0.60;;;;;;;5.60;100.00;99406.72;5093025;28;20048;-85
2022/10/09 02:18:18;;;;;;;0.60;0.60;;;;;;;5.56;100.00;99397.44;5092931;28;20399;-87
2022/10/09 02:20:52;;;;;;;0.65;0.65;;;;;;;5.62;100.00;99399.31;5093092;28;20111;-86
2022/10/09 02:23:21;;;;;;;0.70;0.70;;;;;;;5.53;100.00;99403.19;5092673;28;20044;-86
2022/10/09 02:25:49;;;;;;;0.60;0.60;;;;;;;5.57;100.00;99406.28;5096748;28;20055;-87
2022/10/09 02:28:16;;;;;;;0.70;0.70;;;;;;;5.55;100.00;99401.16;5092613;28;20525;-86
2022/10/09 02:30:54;;;;;;;0.60;0.60;;;;;;;5.57;100.00;99396.44;5091741;28;20058;-84
2022/10/09 02:33:26;;;;;;;0.60;0.60;;;;;;;5.52;100.00;99390.00;5075594;28;20044;-85
2022/10/09 02:35:54;;;;;;;0.65;0.65;;;;;;;5.49;100.00;99396.59;5092419;28;20048;-84
2022/10/09 02:38:21;;;;;;;0.60;0.60;;;;;;;5.50;100.00;99400.13;5091656;28;20052;-85
2022/10/09 02:40:48;;;;;;;0.60;0.60;;;;;;;5.50;100.00;99392.91;5091844;28;20151;-85
2022/10/09 02:43:15;;;;;;;0.60;0.60;;;;;;;5.52;100.00;99387.34;5091227;28;20484;-84
2022/10/09 02:45:42;;;;;;;0.60;0.60;;;;;;;5.51;100.00;99383.84;5090669;28;20090;-86
2022/10/09 02:48:11;;;;;;;0.60;0.60;;;;;;;5.52;100.00;99384.66;5091785;28;20510;-85
2022/10/09 02:50:38;;;;;;;0.60;0.60;;;;;;;5.52;100.00;99379.31;5092739;28;20063;-86
2022/10/09 02:53:05;;;;;;;0.70;0.70;;;;;;;5.54;100.00;99382.59;5092477;28;20510;-86
2022/10/09 02:55:32;;;;;;;0.70;0.70;;;;;;;5.53;100.00;99370.25;5090123;28;20534;-85
2022/10/09 02:57:59;;;;;;;0.70;0.70;;;;;;;5.56;100.00;99373.34;5090929;28;20052;-86
2022/10/09 03:00:27;;;;;;;0.60;0.60;;;;;;;5.56;100.00;99372.53;5090978;28;20509;-87
2022/10/09 03:02:54;;;;;;;0.70;0.70;;;;;;;5.53;100.00;99368.41;5093554;28;20552;-86
2022/10/09 03:05:21;;;;;;;0.60;0.60;;;;;;;5.52;100.00;99364.09;5091873;28;20052;-86
2022/10/09 03:07:50;;;;;;;0.60;0.60;;;;;;;5.51;100.00;99369.63;5092352;28;20073;-85
2022/10/09 03:10:18;;;;;;;0.63;0.63;;;;;;;5.49;100.00;99359.13;5092836;28;20088;-86
2022/10/09 03:12:46;;;;;;;0.70;0.70;;;;;;;5.47;100.00;99355.00;5092261;28;20048;-86
2022/10/09 03:15:15;;;;;;;0.70;0.70;;;;;;;5.41;100.00;99340.56;5091325;28;20517;-86
2022/10/09 03:17:42;;;;;;;0.60;0.60;;;;;;;5.45;100.00;99351.72;5091954;28;20062;-86
2022/10/09 03:20:12;;;;;;;0.70;0.70;;;;;;;5.42;100.00;99343.06;5092090;28;20059;-85
2022/10/09 03:22:39;;;;;;;0.60;0.60;;;;;;;5.41;100.00;99348.59;5091343;28;20086;-86
2022/10/09 03:25:06;;;;;;;0.60;0.60;;;;;;;5.41;100.00;99352.09;5091811;28;20048;-86
2022/10/09 03:27:34;;;;;;;0.70;0.70;;;;;;;5.41;100.00;99344.06;5091732;28;20071;-86
2022/10/09 03:30:02;;;;;;;0.70;0.70;;;;;;;5.41;100.00;99349.41;5092158;28;20415;-87
2022/10/09 03:32:31;;;;;;;0.70;0.70;;;;;;;5.43;100.00;99350.03;5073967;28;20044;-86
2022/10/09 03:34:58;;;;;;;0.60;0.60;;;;;;;5.37;100.00;99340.16;5057441;28;20052;-86
2022/10/09 03:37:25;;;;;;;0.70;0.70;;;;;;;5.43;100.00;99343.88;5090477;28;20080;-87
2022/10/09 03:39:55;;;;;;;0.70;0.70;;;;;;;5.42;100.00;99335.03;5093236;28;20105;-85
2022/10/09 03:42:22;;;;;;;0.60;0.60;;;;;;;5.47;100.00;99337.09;5091923;28;20052;-86
2022/10/09 03:44:49;;;;;;;0.60;0.60;;;;;;;5.47;100.00;99339.78;5091922;28;20089;-85
2022/10/09 03:47:16;;;;;;;0.60;0.60;;;;;;;5.46;100.00;99332.75;5094984;28;20521;-85
2022/10/09 03:49:43;;;;;;;0.70;0.70;;;;;;;5.47;100.00;99329.06;5090932;28;20056;-86
2022/10/09 03:52:10;;;;;;;0.70;0.70;;;;;;;5.48;100.00;99327.22;5091493;28;20503;-86
2022/10/09 03:54:37;;;;;;;0.70;0.70;;;;;;;5.46;100.00;99327.41;5092036;28;20539;-86
2022/10/09 03:57:05;;;;;;;0.68;0.68;;;;;;;5.48;100.00;99313.81;5095039;28;20055;-85
2022/10/09 03:59:32;;;;;;;0.60;0.60;;;;;;;5.47;100.00;99315.69;5096432;28;20427;-87
2022/10/09 04:01:58;;;;;;;0.77;0.77;;;;;;;5.43;100.00;99311.75;5095841;28;20048;-86
2022/10/09 04:04:30;;;;;;;0.70;0.70;;;;;;;5.41;100.00;99316.47;5096426;28;20056;-86
2022/10/09 04:06:57;;;;;;;0.70;0.70;;;;;;;5.41;100.00;99308.44;5105526;28;20054;-87
2022/10/09 04:09:24;;;;;;;0.60;0.60;;;;;;;5.44;100.00;99310.72;5088078;28;20067;-87
2022/10/09 04:11:51;;;;;;;0.70;0.70;;;;;;;5.48;100.00;99320.00;5096547;28;20055;-87
2022/10/09 04:14:18;;;;;;;0.70;0.70;;;;;;;5.52;100.00;99313.22;5096309;28;20473;-85
2022/10/09 04:16:45;;;;;;;0.70;0.70;;;;;;;5.55;100.00;99307.44;5095665;28;20056;-87
2022/10/09 04:19:15;;;;;;;0.70;0.70;;;;;;;5.60;100.00;99306.84;5094727;28;20048;-86
2022/10/09 04:21:43;;;;;;;0.65;0.65;;;;;;;5.60;100.00;99299.63;5098321;28;20056;-86
2022/10/09 04:24:10;;;;;;;0.70;0.70;;;;;;;5.59;100.00;99300.63;5098576;28;20052;-86
2022/10/09 04:26:37;;;;;;;0.70;0.70;;;;;;;5.61;100.00;99293.22;5094082;28;20095;-87
2022/10/09 04:29:10;;;;;;;0.70;0.70;;;;;;;5.60;100.00;99306.84;5096328;28;20052;-87
2022/10/09 04:31:37;;;;;;;0.60;0.60;;;;;;;5.57;100.00;99292.00;5093537;28;20048;-87
2022/10/09 04:34:06;;;;;;;0.70;0.70;;;;;;;5.57;100.00;99292.00;5095239;28;20131;-87
2022/10/09 04:36:33;;;;;;;0.70;0.70;;;;;;;5.62;100.00;99294.91;5094131;28;20056;-86
2022/10/09 04:39:00;;;;;;;0.70;0.70;;;;;;;5.62;100.00;99292.22;5103929;28;20047;-86
2022/10/09 04:41:30;;;;;;;0.70;0.70;;;;;;;5.62;100.00;99289.53;5114231;28;20419;-86
2022/10/09 04:44:07;;;;;;;0.80;0.80;;;;;;;5.64;100.00;99289.31;5112844;28;20749;-88
2022/10/09 04:46:34;;;;;;;0.70;0.70;;;;;;;5.65;100.00;99288.31;5117436;28;20100;-87
2022/10/09 04:49:04;;;;;;;0.70;0.70;;;;;;;5.71;100.00;99282.13;5114033;28;20130;-87
2022/10/09 04:51:31;;;;;;;0.70;0.70;;;;;;;5.74;100.00;99289.72;5115437;28;20055;-86
2022/10/09 04:53:58;;;;;;;0.70;0.70;;;;;;;5.77;100.00;99285.81;5114526;28;20078;-86
2022/10/09 04:56:26;;;;;;;0.70;0.70;;;;;;;5.77;100.00;99278.63;5114431;28;20163;-86
2022/10/09 04:58:53;;;;;;;0.60;0.60;;;;;;;5.87;100.00;99286.22;5114301;28;20058;-85
2022/10/09 05:01:23;;;;;;;0.70;0.70;;;;;;;5.94;99.56;99287.06;5116696;28;20225;-86
2022/10/09 05:03:50;;;;;;;0.70;0.70;;;;;;;6.02;99.36;99278.00;5095926;28;20054;-87
2022/10/09 05:06:22;;;;;;;0.70;0.70;;;;;;;6.06;99.00;99273.88;5114347;28;20044;-88
2022/10/09 05:08:50;;;;;;;0.80;0.80;;;;;;;6.11;98.63;99270.59;5115138;28;20051;-86
2022/10/09 05:11:22;;;;;;;0.70;0.70;;;;;;;6.18;98.24;99280.25;5115341;28;20509;-87
2022/10/09 05:13:52;;;;;;;0.80;0.80;;;;;;;6.30;97.97;99280.41;5086987;28;20052;-84
2022/10/09 05:16:25;;;;;;;0.80;0.80;;;;;;;6.37;97.22;99275.06;5075557;28;20120;-88
2022/10/09 05:18:56;;;;;;;0.60;0.60;;;;;;;6.46;96.96;99277.28;5092453;28;20701;-84
2022/10/09 05:21:24;;;;;;;0.70;0.70;;;;;;;6.60;96.15;99269.19;5107211;28;20047;-86
2022/10/09 05:23:55;;;;;;;0.70;0.70;;;;;;;6.72;95.64;99284.41;5113630;28;20051;-85
2022/10/09 05:26:23;;;;;;;0.70;0.70;;;;;;;6.83;95.14;99277.56;5100174;28;20101;-86
2022/10/09 05:28:51;;;;;;;0.70;0.70;;;;;;;6.99;94.49;99270.03;5098585;28;20079;-85
2022/10/09 05:31:26;;;;;;;0.70;0.70;;;;;;;7.11;93.92;99282.56;5107115;28;20069;-84
2022/10/09 05:33:55;;;;;;;0.80;0.80;;;;;;;7.22;92.75;99278.41;5096725;28;20044;-89
2022/10/09 05:36:21;;;;;;;0.70;0.70;;;;;;;7.33;92.25;99266.94;5099632;28;20054;-87
2022/10/09 05:38:48;;;;;;;0.70;0.70;;;;;;;7.44;91.36;99269.97;5098261;28;20051;-86
2022/10/09 05:41:18;;;;;;;0.70;0.70;;;;;;;7.57;90.77;99267.19;5101016;28;20058;-86
2022/10/09 05:43:46;;;;;;;0.68;0.68;;;;;;;7.73;90.14;99272.03;5110379;28;20051;-86
2022/10/09 05:46:18;;;;;;;0.70;0.70;;;;;;;7.91;88.65;99273.13;5115210;28;20047;-88
2022/10/09 05:48:51;;;;;;;0.70;0.70;;;;;;;8.06;87.93;99260.16;5110993;28;20059;-87
2022/10/09 05:51:29;;;;;;;0.70;0.70;;;;;;;8.26;87.16;99246.53;5108469;28;20134;-87
2022/10/09 05:53:56;;;;;;;0.80;0.80;;;;;;;8.43;86.02;99252.13;5109464;28;20506;-84
2022/10/09 05:56:26;;;;;;;0.80;0.80;;;;;;;8.57;84.54;99242.88;5112393;28;20039;-87
2022/10/09 05:59:01;;;;;;;0.70;0.70;;;;;;;8.72;84.11;99245.19;5109316;28;20074;-86
2022/10/09 06:01:33;;;;;;;0.70;0.70;;;;;;;8.83;83.72;99251.66;5100985;28;20057;-85
2022/10/09 06:04:01;;;;;;;0.70;0.70;;;;;;;8.92;82.75;99253.00;5100289;28;20510;-89
2022/10/09 06:06:31;;;;;;;0.70;0.70;;;;;;;9.01;81.98;99254.31;5106428;28;20050;-87
2022/10/09 06:09:05;;;;;;;0.70;0.70;;;;;;;9.11;81.51;99261.84;5111437;28;20498;-84
2022/10/09 06:11:35;;;;;;;0.70;0.70;;;;;;;9.14;80.94;99252.47;5101507;28;20047;-91
2022/10/09 06:14:04;;;;;;;0.63;0.63;;;;;;;9.07;81.04;99253.41;5112979;28;20403;-89
2022/10/09 06:16:34;;;;;;;0.60;0.60;;;;;;;9.09;81.00;99262.09;5116065;28;20509;-86
2022/10/09 06:19:06;;;;;;;0.60;0.60;;;;;;;9.14;81.22;99253.31;5113009;28;20402;-95
2022/10/09 06:21:33;;;;;;;0.60;0.60;;;;;;;9.16;80.92;99261.16;5117660;28;20441;-90
2022/10/09 06:24:01;;;;;;;0.60;0.60;;;;;;;9.19;80.90;99256.16;5117848;28;20085;-87
2022/10/09 06:26:29;;;;;;;0.50;0.50;;;;;;;9.21;80.93;99256.72;5115188;28;20051;-87
2022/10/09 06:28:59;;;;;;;0.70;0.70;;;;;;;9.30;80.77;99262.63;5115069;28;20057;-90
2022/10/09 06:31:29;;;;;;;0.60;0.60;;;;;;;9.43;80.42;99257.03;5116915;28;20050;-92
2022/10/09 06:33:58;;;;;;;0.68;0.68;;;;;;;9.58;79.57;99253.91;5115080;28;20071;-91
2022/10/09 06:36:28;;;;;;;0.60;0.60;;;;;;;9.69;79.00;99249.56;5105721;28;20048;-90
2022/10/09 06:38:56;;;;;;;0.60;0.60;;;;;;;9.87;78.42;99249.47;5103161;28;20059;-90
2022/10/09 06:41:25;;;;;;;0.60;0.60;;;;;;;10.06;77.29;99242.09;5087762;28;20048;-88
2022/10/09 06:43:57;;;;;;;0.70;0.70;;;;;;;10.19;76.29;99251.81;5112372;28;20047;-88
2022/10/09 06:46:49;;;;;;;0.70;0.70;;;;;;;10.32;75.54;99240.78;5122191;28;20058;-91
2022/10/09 06:49:31;;;;;;;0.60;0.60;;;;;;;10.40;74.22;99245.00;5121369;28;20051;-92
2022/10/09 06:51:58;;;;;;;0.63;0.63;;;;;;;10.45;74.57;99247.81;5129258;28;20047;-93
2022/10/09 06:54:25;;;;;;;0.70;0.70;;;;;;;10.45;73.94;99242.41;5127391;28;20077;-91
2022/10/09 06:56:54;;;;;;;0.60;0.60;;;;;;;10.52;73.36;99247.69;5120722;28;20567;-92
2022/10/09 06:59:21;;;;;;;0.60;0.60;;;;;;;10.59;72.30;99251.06;5107993;28;20060;-94
2022/10/09 07:01:48;;;;;;;0.70;0.70;;;;;;;10.68;71.68;99244.22;5120064;28;20527;-90
2022/10/09 07:04:22;;;;;;;0.60;0.60;;;;;;;10.78;71.54;99246.31;5129951;28;20062;-92
2022/10/09 07:06:49;;;;;;;0.68;0.68;;;;;;;10.86;70.63;99256.72;5127891;28;20046;-92
2022/10/09 07:09:16;;;;;;;0.70;0.70;;;;;;;10.96;70.27;99248.00;5113331;28;20119;-92
2022/10/09 07:11:45;;;;;;;0.60;0.60;;;;;;;10.99;69.82;99237.56;5126465;28;20051;-92
2022/10/09 07:14:14;;;;;;;0.68;0.68;;;;;;;11.03;70.21;99230.59;5129204;28;20056;-93
2022/10/09 07:16:46;;;;;;;0.60;0.60;;;;;;;11.10;69.82;99230.47;5135133;28;20054;-93
2022/10/09 07:19:16;;;;;;;0.70;0.70;;;;;;;11.26;69.33;99228.84;5131687;28;20063;-91
2022/10/09 07:21:45;;;;;;;0.70;0.70;;;;;;;11.44;68.79;99220.53;5130395;28;20047;-94
2022/10/09 07:24:13;;;;;;;0.70;0.70;;;;;;;11.68;67.61;99220.38;5131376;28;20146;-93
2022/10/09 07:26:43;;;;;;;0.70;0.70;;;;;;;11.84;66.79;99221.41;5131797;28;20048;-92
2022/10/09 07:29:13;;;;;;;0.60;0.60;;;;;;;11.98;65.76;99211.13;5129382;28;20051;-92
2022/10/09 07:31:40;;;;;;;0.70;0.70;;;;;;;12.14;64.98;99197.53;5134750;28;20032;-93
2022/10/09 07:34:07;;;;;;;0.60;0.60;;;;;;;12.19;64.36;99212.22;5136827;28;20059;-91
2022/10/09 07:36:34;;;;;;;0.70;0.70;;;;;;;12.36;64.07;99211.09;5135768;28;20044;-92
2022/10/09 07:39:06;;;;;;;0.70;0.70;;;;;;;12.59;63.00;99201.09;5121009;28;20059;-93
2022/10/09 07:41:33;;;;;;;0.80;0.80;;;;;;;12.77;62.24;99202.66;5108825;28;20101;-92
2022/10/09 07:44:00;;;;;;;0.70;0.70;;;;;;;13.01;61.46;99214.00;5122759;28;20054;-91
2022/10/09 07:46:28;;;;;;;0.70;0.70;;;;;;;13.12;61.17;99204.91;5117988;27;20055;-94
2022/10/09 07:49:00;;;;;;;0.70;0.70;;;;;;;13.37;59.86;99208.97;5113008;28;20048;-92
2022/10/09 07:51:28;;;;;;;0.70;0.70;;;;;;;13.57;58.82;99200.16;5112750;28;20050;-93
2022/10/09 07:53:56;;;;;;;0.70;0.70;;;;;;;13.93;58.30;99198.53;5111097;28;20232;-93
2022/10/09 07:56:27;;;;;;;0.70;0.70;;;;;;;14.24;57.21;99188.66;5112643;28;20032;-92
2022/10/09 07:59:11;;;;;;;0.70;0.70;;;;;;;14.45;56.27;99194.19;5113221;28;20086;-91
2022/10/09 08:01:40;;;;;;;0.70;0.70;;;;;;;14.84;55.47;99201.97;5077383;28;20185;-94
2022/10/09 08:04:08;;;;;;;0.70;0.70;;;;;;;14.86;54.09;99191.63;5129122;28;20047;-92
2022/10/09 08:06:36;;;;;;;0.60;0.60;;;;;;;14.86;53.85;99200.63;5128390;28;20048;-90
2022/10/09 08:09:04;;;;;;;0.70;0.70;;;;;;;14.74;54.52;99195.41;5129938;28;20061;-92
2022/10/09 08:11:32;;;;;;;0.70;0.70;;;;;;;15.13;53.46;99200.38;5126750;28;20047;-91
2022/10/09 08:14:14;;;;;;;0.70;0.70;;;;;;;15.57;52.15;99186.28;5128430;28;20083;-92
2022/10/09 08:16:45;;;;;;;0.70;0.70;;;;;;;15.92;51.84;99192.78;5132959;28;20047;-93
2022/10/09 08:19:12;;;;;;;0.70;0.70;;;;;;;16.19;50.36;99184.28;5135180;28;20047;-92
2022/10/09 08:21:42;;;;;;;0.70;0.70;;;;;;;16.03;49.34;99199.84;5134901;28;20501;-94
2022/10/09 08:24:11;;;;;;;0.60;0.60;;;;;;;15.84;50.31;99187.91;5128620;28;20043;-92
2022/10/09 08:26:39;;;;;;;0.70;0.70;;;;;;;15.78;50.06;99178.13;5131001;28;20090;-94
2022/10/09 08:29:07;;;;;;;0.70;0.70;;;;;;;16.11;49.49;99182.13;5129427;28;20057;-92
2022/10/09 08:31:36;;;;;;;0.60;0.60;;;;;;;16.34;48.95;99175.25;5129297;28;20051;-92
2022/10/09 08:34:03;;;;;;;0.70;0.70;;;;;;;16.58;47.86;99189.03;5126092;28;20105;-92
2022/10/09 08:36:30;;;;;;;0.60;0.60;;;;;;;16.62;48.22;99183.84;5110662;28;20142;-93
2022/10/09 08:39:00;;;;;;;0.70;0.70;;;;;;;16.52;47.87;99181.19;5117575;28;20053;-93
2022/10/09 08:41:56;;;;;;;0.70;0.70;;;;;;;16.99;46.49;99188.88;5132769;28;20405;-93
2022/10/09 08:44:30;;;;;;;0.70;0.70;;;;;;;16.90;46.31;99174.19;5043433;28;20051;-94
2022/10/09 08:47:06;;;;;;;0.70;0.70;;;;;;;16.94;46.89;99177.16;5047520;28;20088;-93
2022/10/09 08:49:55;;;;;;;0.70;0.70;;;;;;;17.65;44.91;99195.75;5046429;28;20053;-93
2022/10/09 08:52:40;;;;;;;0.60;0.60;;;;;;;17.69;44.82;99183.13;5048576;28;20053;-93
2022/10/09 08:55:28;;;;;;;0.70;0.70;;;;;;;17.91;44.26;99184.59;5049676;28;20057;-93
2022/10/09 08:58:03;;;;;;;0.70;0.70;;;;;;;18.10;44.12;99169.09;5033260;28;20051;-94
2022/10/09 09:00:44;;;;;;;0.60;0.60;;;;;;;18.28;43.39;99145.69;5019328;28;20060;-95
2022/10/09 09:03:47;;;;;;;0.70;0.70;;;;;;;18.15;43.13;99163.59;5036274;28;20053;-93
2022/10/09 09:07:17;;;;;;;0.70;0.70;;;;;;;18.58;41.66;99192.84;5051674;28;20049;-92
2022/10/09 09:09:51;;;;;;;0.70;0.70;;;;;;;18.41;42.45;99169.56;5012980;28;20064;-94
2022/10/09 09:12:57;;;;;;;0.70;0.70;;;;;;;18.70;42.01;99170.56;4995689;28;20501;-92
2022/10/09 09:15:51;;;;;;;0.70;0.70;;;;;;;19.12;41.38;99169.72;5002129;28;20120;-94
2022/10/09 09:18:49;;;;;;;0.70;0.70;;;;;;;19.25;40.44;99207.28;5002320;28;20098;-88
2022/10/09 09:21:37;;;;;;;0.70;0.70;;;;;;;18.79;41.00;99168.84;5047843;28;20064;-93
2022/10/09 09:24:11;;;;;;;0.70;0.70;;;;;;;19.00;40.86;99156.50;5087964;28;20080;-93
2022/10/09 09:26:50;;;;;;;0.50;0.50;;;;;;;19.61;39.48;99164.81;5073113;28;20055;-92
2022/10/09 09:29:22;;;;;;;0.70;0.70;;;;;;;19.09;40.00;99153.06;5087071;28;20136;-94
2022/10/09 09:31:52;;;;;;;0.70;0.70;;;;;;;18.39;41.05;99163.56;5088293;28;20086;-93
2022/10/09 09:34:40;;;;;;;0.70;0.70;;;;;;;19.24;39.22;99159.16;5091919;28;20058;-91
2022/10/09 09:37:10;;;;;;;0.70;0.70;;;;;;;19.79;38.68;99161.25;5088905;28;20048;-93
2022/10/09 09:39:37;;;;;;;0.80;0.80;;;;;;;19.83;38.44;99143.09;5095323;28;20108;-93
2022/10/09 09:42:26;;;;;;;0.80;0.80;;;;;;;19.88;37.73;99140.28;5130166;28;20047;-94
2022/10/09 09:45:03;;;;;;;0.80;0.80;;;;;;;19.79;37.50;99149.47;5130253;28;20068;-92
2022/10/09 09:47:40;;;;;;;0.70;0.70;;;;;;;19.16;38.46;99153.53;5127420;28;20078;-93
2022/10/09 09:50:07;;;;;;;0.52;0.52;;;;;;;19.80;37.35;99157.41;5129753;28;20063;-92
2022/10/09 09:52:54;;;;;;;0.50;0.50;;;;;;;19.70;37.39;99149.38;5133050;28;20039;-94
2022/10/09 09:55:24;;;;;;;0.60;0.60;;;;;;;19.33;38.29;99159.25;5136550;28;20048;-88
2022/10/09 09:57:51;;;;;;;0.50;0.50;;;;;;;19.32;37.63;99151.34;5135195;28;20048;-92
2022/10/09 10:00:23;;;;;;;0.50;0.50;;;;;;;18.56;38.73;99145.88;5134775;28;20035;-93
2022/10/09 10:03:10;;;;;;;0.70;0.70;;;;;;;18.82;38.06;99143.63;5117917;28;20058;-94
2022/10/09 10:05:38;;;;;;;0.63;0.63;;;;;;;19.44;37.23;99118.84;5155305;22;20053;-93
2022/10/09 10:08:24;;;;;;;0.70;0.70;;;;;;;19.65;36.78;99103.72;5056296;28;20049;-93
2022/10/09 10:10:54;;;;;;;0.70;0.70;;;;;;;19.42;37.29;99099.19;5068075;28;20092;-92
2022/10/09 10:13:29;;;;;;;0.70;0.70;;;;;;;19.61;36.26;99126.50;5065155;28;20063;-94
2022/10/09 10:15:57;;;;;;;0.60;0.60;;;;;;;19.92;34.99;99119.34;5065261;28;20061;-93
2022/10/09 10:18:27;;;;;;;0.70;0.70;;;;;;;20.11;35.05;99108.31;5061253;28;20056;-92
2022/10/09 10:20:56;;;;;;;0.60;0.60;;;;;;;20.37;35.10;99115.19;5067642;28;20040;-92
2022/10/09 10:23:39;;;;;;;0.70;0.70;;;;;;;20.80;33.91;99103.88;5046098;28;20084;-91
2022/10/09 10:26:24;;;;;;;0.60;0.60;;;;;;;21.30;32.75;99132.00;5068402;28;20052;-93
2022/10/09 10:29:15;;;;;;;0.70;0.70;;;;;;;20.86;33.40;99113.59;5061498;28;20106;-92
2022/10/09 10:31:50;;;;;;;0.50;0.50;;;;;;;21.08;32.91;99135.56;5068049;28;20033;-91
2022/10/09 10:34:27;;;;;;;0.60;0.60;;;;;;;20.16;33.31;99103.88;5072206;28;20045;-93
2022/10/09 10:37:04;;;;;;;0.50;0.50;;;;;;;19.38;34.70;99100.91;5062165;28;20045;-87
2022/10/09 10:40:13;;;;;;;0.40;0.40;;;;;;;18.87;35.43;99105.28;5057405;28;20059;-94
2022/10/09 10:42:52;;;;;;;0.50;0.50;;;;;;;18.67;36.06;99109.09;4951303;28;20030;-94
2022/10/09 10:45:50;;;;;;;0.50;0.50;;;;;;;18.34;36.54;99105.47;4986671;28;20081;-92
2022/10/09 10:48:38;;;;;;;0.50;0.50;;;;;;;18.15;37.11;99098.06;4965808;29;20653;-91
2022/10/09 10:51:30;;;;;;;0.50;0.50;;;;;;;18.39;36.68;99105.38;4933501;29;20047;-94
2022/10/09 10:54:15;;;;;;;0.50;0.50;;;;;;;18.13;37.39;99091.25;4963428;29;20135;-91
2022/10/09 10:56:46;;;;;;;0.47;0.47;;;;;;;18.44;37.12;99120.91;4960777;29;20059;-94
2022/10/09 10:59:40;;;;;;;0.60;0.60;;;;;;;18.80;35.80;99096.63;4944043;29;20135;-91
2022/10/09 11:02:31;;;;;;;0.70;0.70;;;;;;;19.28;35.18;99089.03;4939383;29;20981;-91
2022/10/09 11:05:46;;;;;;;0.68;0.68;;;;;;;19.73;34.15;99068.56;4949197;29;20090;-93
2022/10/09 11:08:29;;;;;;;0.45;0.45;;;;;;;18.72;36.16;99078.16;4942130;29;20050;-94
2022/10/09 11:11:24;;;;;;;0.50;0.50;;;;;;;18.72;35.74;99068.03;4960124;29;20055;-91
2022/10/09 11:14:07;;;;;;;0.50;0.50;;;;;;;19.10;35.44;99067.19;4939965;29;20637;-86
2022/10/09 11:16:51;;;;;;;0.50;0.50;;;;;;;19.15;35.21;99047.97;4942765;29;20297;-91
2022/10/09 11:19:25;;;;;;;0.50;0.50;;;;;;;18.53;36.25;99073.47;4988753;28;20045;-93
2022/10/09 11:22:02;;;;;;;0.50;0.50;;;;;;;18.48;36.59;99068.09;5048641;28;20126;-94
2022/10/09 11:24:57;;;;;;;0.60;0.60;;;;;;;18.74;35.84;99060.34;5040210;28;20111;-95
2022/10/09 11:28:10;;;;;;;0.50;0.50;;;;;;;18.54;36.09;99061.47;5045408;28;20049;-93
2022/10/09 11:30:43;;;;;;;0.50;0.50;;;;;;;18.10;36.93;99067.25;4993529;28;20093;-93
2022/10/09 11:33:27;;;;;;;0.47;0.47;;;;;;;17.56;38.03;99061.00;4985914;28;20061;-94
2022/10/09 11:36:21;;;;;;;0.50;0.50;;;;;;;17.30;38.41;99066.72;4999909;28;20083;-92
2022/10/09 11:39:04;;;;;;;0.40;0.40;;;;;;;16.98;38.76;99059.09;4945535;29;20050;-92
2022/10/09 11:41:39;;;;;;;0.40;0.40;;;;;;;16.95;39.21;99059.66;4941823;29;20307;-93
2022/10/09 11:44:22;;;;;;;0.50;0.50;;;;;;;17.05;39.09;99069.69;4958648;29;20040;-91
2022/10/09 11:47:20;;;;;;;0.40;0.40;;;;;;;17.14;39.04;99059.75;4959615;29;20062;-91
2022/10/09 11:49:56;;;;;;;0.40;0.40;;;;;;;17.07;39.38;99067.47;4963724;29;20051;-92
2022/10/09 11:52:26;;;;;;;0.50;0.50;;;;;;;17.05;39.61;99061.50;4966461;29;20039;-90
2022/10/09 11:54:56;;;;;;;0.40;0.40;;;;;;;17.13;39.83;99060.88;4943009;29;20077;-91
2022/10/09 11:57:27;;;;;;;0.43;0.43;;;;;;;17.25;39.93;99074.16;4939494;29;20060;-90
2022/10/09 12:00:08;;;;;;;0.30;0.30;;;;;;;17.26;39.27;99071.13;4952806;29;20078;-89
2022/10/09 12:02:36;;;;;;;0.40;0.40;;;;;;;16.86;39.59;99064.09;4973006;29;20035;-92
2022/10/09 12:05:28;;;;;;;0.43;0.43;;;;;;;16.66;40.41;99082.19;4968927;28;20079;-92